createdAt,value
2023-06-26T00:04:02.818Z,98213.00
2023-06-26T00:09:24.709Z,98211.00
2023-06-26T00:14:46.387Z,98211.00
2023-06-26T00:20:08.504Z,98203.00
2023-06-26T00:25:34.301Z,98208.00
2023-06-26T00:31:07.411Z,98200.00
2023-06-26T00:36:37.032Z,98200.00
2023-06-26T00:42:01.573Z,98192.00
2023-06-26T00:47:39.350Z,98190.00
2023-06-26T00:53:16.779Z,98194.00
2023-06-26T00:58:56.108Z,98183.00
2023-06-26T01:04:40.072Z,98191.00
2023-06-26T01:10:23.348Z,98180.00
2023-06-26T01:16:20.783Z,98174.00
2023-06-26T01:22:06.021Z,98173.00
2023-06-26T01:27:54.628Z,98170.00
2023-06-26T01:33:35.095Z,98169.00
2023-06-26T01:39:06.879Z,98164.00
2023-06-26T01:44:34.108Z,98158.00
2023-06-26T01:50:12.694Z,98152.00
2023-06-26T01:55:38.515Z,98144.00
2023-06-26T02:01:00.497Z,98141.00
2023-06-26T02:06:41.332Z,98134.00
2023-06-26T02:12:25.197Z,98124.00
2023-06-26T02:17:50.736Z,98130.00
2023-06-26T02:23:35.176Z,98128.00
2023-06-26T02:29:08.481Z,98116.00
2023-06-26T02:34:31.568Z,98129.00
2023-06-26T02:39:53.191Z,98118.00
2023-06-26T02:45:14.859Z,98127.00
2023-06-26T02:50:36.428Z,98118.00
2023-06-26T02:56:32.118Z,98117.00
2023-06-26T03:02:16.867Z,98121.00
2023-06-26T03:07:43.277Z,98113.00
2023-06-26T03:13:07.303Z,98106.00
2023-06-26T03:18:45.725Z,98102.00
2023-06-26T03:24:15.781Z,98099.00
2023-06-26T03:29:38.421Z,98101.00
2023-06-26T03:35:02.358Z,98101.00
2023-06-26T03:40:24.758Z,98091.00
2023-06-26T03:45:48.642Z,98095.00
2023-06-26T03:51:33.311Z,98092.00
2023-06-26T03:56:57.892Z,98080.00
2023-06-26T04:02:40.753Z,98088.00
2023-06-26T04:08:34.402Z,98080.00
2023-06-26T04:13:58.806Z,98085.00
2023-06-26T04:19:20.478Z,98084.00
2023-06-26T04:24:41.821Z,98076.00
2023-06-26T04:30:03.257Z,98077.00
2023-06-26T04:35:25.035Z,98081.00
2023-06-26T04:40:46.742Z,98070.00
2023-06-26T04:46:33.575Z,98076.00
2023-06-26T04:51:57.081Z,98071.00
2023-06-26T04:57:31.715Z,98067.00
2023-06-26T05:03:15.707Z,98060.00
2023-06-26T05:08:40.457Z,98055.00
2023-06-26T05:14:09.155Z,98059.00
2023-06-26T05:19:31.062Z,98056.00
2023-06-26T05:24:54.438Z,98045.00
2023-06-26T05:30:16.448Z,98042.00
2023-06-26T05:35:38.606Z,98037.00
2023-06-26T05:41:23.749Z,98043.00
2023-06-26T05:47:12.779Z,98042.00
2023-06-26T05:53:00.008Z,98044.00
2023-06-26T05:58:38.770Z,98033.00
2023-06-26T06:04:25.896Z,98034.00
2023-06-26T06:09:51.617Z,98032.00
2023-06-26T06:15:13.216Z,98027.00
2023-06-26T06:20:34.805Z,98023.00
2023-06-26T06:26:15.513Z,98027.00
2023-06-26T06:32:01.056Z,98036.00
2023-06-26T06:37:42.813Z,98037.00
2023-06-26T06:43:22.573Z,98040.00
2023-06-26T06:48:52.660Z,98031.00
2023-06-26T06:54:25.519Z,98030.00
2023-06-26T06:59:48.548Z,98038.00
2023-06-26T07:05:32.818Z,98024.00
2023-06-26T07:11:05.494Z,98025.00
2023-06-26T07:16:40.710Z,98017.00
2023-06-26T07:22:23.076Z,98012.00
2023-06-26T07:28:03.771Z,98017.00
2023-06-26T07:33:42.192Z,98018.00
2023-06-26T07:39:21.671Z,98025.00
2023-06-26T07:44:47.344Z,98014.00
2023-06-26T07:50:11.004Z,98010.00
2023-06-26T07:55:32.742Z,98017.00
2023-06-26T08:00:54.358Z,98015.00
2023-06-26T08:06:40.602Z,98013.00
2023-06-26T08:12:26.328Z,98006.00
2023-06-26T08:18:12.245Z,98008.00
2023-06-26T08:23:49.045Z,98006.00
2023-06-26T08:29:27.632Z,97998.00
2023-06-26T08:34:49.897Z,97999.00
2023-06-26T08:40:13.068Z,98000.00
2023-06-26T08:45:34.633Z,97997.00
2023-06-26T08:51:32.156Z,98007.00
2023-06-26T08:57:17.241Z,97995.00
2023-06-26T09:03:03.533Z,97997.00
2023-06-26T09:08:33.668Z,97998.00
2023-06-26T09:14:06.575Z,98004.00
2023-06-26T09:19:31.388Z,98004.00
2023-06-26T09:24:53.351Z,97991.00
2023-06-26T09:30:19.747Z,97991.00
2023-06-26T09:35:41.387Z,97993.00
2023-06-26T09:41:37.478Z,97985.00
2023-06-26T09:47:05.359Z,97991.00
2023-06-26T09:52:46.764Z,97991.00
2023-06-26T09:58:18.703Z,97985.00
2023-06-26T10:04:19.092Z,97986.00
2023-06-26T10:10:05.157Z,97986.00
2023-06-26T10:15:28.547Z,97979.00
2023-06-26T10:21:11.668Z,97970.00
2023-06-26T10:27:08.694Z,97967.00
2023-06-26T10:33:00.433Z,97968.00
2023-06-26T10:39:03.455Z,97960.00
2023-06-26T10:44:26.239Z,97968.00
2023-06-26T10:50:01.914Z,97955.00
2023-06-26T10:55:30.803Z,97950.00
2023-06-26T11:00:53.039Z,97937.00
2023-06-26T11:06:29.156Z,97940.00
2023-06-26T11:12:11.325Z,97935.00
2023-06-26T11:18:16.465Z,97935.00
2023-06-26T11:29:57.975Z,97937.00
2023-06-26T11:35:33.893Z,97931.00
2023-06-26T11:41:07.721Z,97926.00
2023-06-26T11:46:58.629Z,97924.00
2023-06-26T11:52:32.043Z,97905.00
2023-06-26T11:58:07.332Z,97914.00
2023-06-26T12:03:55.288Z,97903.00
2023-06-26T12:09:20.775Z,97901.00
2023-06-26T12:14:42.315Z,97896.00
2023-06-26T12:20:06.615Z,97901.00
2023-06-26T12:25:28.537Z,97894.00
2023-06-26T12:31:34.153Z,97892.00
2023-06-26T12:37:19.635Z,97887.00
2023-06-26T12:43:08.550Z,97891.00
2023-06-26T12:48:47.707Z,97889.00
2023-06-26T12:54:22.275Z,97881.00
2023-06-26T12:59:45.442Z,97869.00
2023-06-26T13:05:27.553Z,97864.00
2023-06-26T13:11:02.786Z,97860.00
2023-06-26T13:16:34.437Z,97850.00
2023-06-26T13:22:17.408Z,97847.00
2023-06-26T13:28:00.644Z,97843.00
2023-06-26T13:33:31.788Z,97842.00
2023-06-26T13:39:04.392Z,97827.00
2023-06-26T13:44:34.194Z,97820.00
2023-06-26T13:50:03.082Z,97813.00
2023-06-26T13:55:24.701Z,97813.00
2023-06-26T14:00:47.359Z,97813.00
2023-06-26T14:06:37.437Z,97809.00
2023-06-26T14:12:22.747Z,97793.00
2023-06-26T14:18:04.158Z,97776.00
2023-06-26T14:23:32.074Z,97774.00
2023-06-26T14:29:04.131Z,97752.00
2023-06-26T14:34:32.051Z,97744.00
2023-06-26T14:39:54.684Z,97746.00
2023-06-26T14:45:16.434Z,97741.00
2023-06-26T14:50:38.813Z,97729.00
2023-06-26T14:56:16.779Z,97722.00
2023-06-26T15:07:50.964Z,97733.00
2023-06-26T15:13:26.613Z,97730.00
2023-06-26T15:19:05.695Z,97828.00
2023-06-26T15:24:28.786Z,97885.00
2023-06-26T15:29:50.537Z,97874.00
2023-06-26T15:35:11.977Z,97852.00
2023-06-26T15:40:33.501Z,97822.00
2023-06-26T15:46:08.642Z,97828.00
2023-06-26T15:51:48.224Z,97821.00
2023-06-26T15:57:25.134Z,97836.00
2023-06-26T16:03:26.647Z,97847.00
2023-06-26T16:09:15.287Z,97851.00
2023-06-26T16:14:39.514Z,97852.00
2023-06-26T16:20:00.934Z,97858.00
2023-06-26T16:25:22.224Z,97872.00
2023-06-26T16:30:44.067Z,97881.00
2023-06-26T16:36:30.786Z,97892.00
2023-06-26T16:42:10.955Z,97893.00
2023-06-26T16:47:56.614Z,97889.00
2023-06-26T16:53:38.919Z,97903.00
2023-06-26T16:59:07.280Z,97912.00
2023-06-26T17:04:48.312Z,97911.00
2023-06-26T17:10:15.925Z,97940.00
2023-06-26T17:15:38.397Z,97960.00
2023-06-26T17:21:17.903Z,97954.00
2023-06-26T17:27:10.228Z,97961.00
2023-06-26T17:33:03.060Z,97987.00
2023-06-26T17:38:33.045Z,97981.00
2023-06-26T17:44:04.602Z,97988.00
2023-06-26T17:49:32.758Z,97998.00
2023-06-26T17:54:55.142Z,98000.00
2023-06-26T18:00:17.590Z,98003.00
2023-06-26T18:05:55.064Z,98007.00
2023-06-26T18:11:44.145Z,98005.00
2023-06-26T18:17:31.050Z,98001.00
2023-06-26T18:22:58.464Z,98011.00
2023-06-26T18:28:30.409Z,98009.00
2023-06-26T18:34:04.241Z,98009.00
2023-06-26T18:39:30.254Z,98015.00
2023-06-26T18:44:52.847Z,98034.00
2023-06-26T18:50:16.127Z,98043.00
2023-06-26T18:55:37.812Z,98046.00
2023-06-26T19:01:00.161Z,98065.00
2023-06-26T19:06:44.986Z,98054.00
2023-06-26T19:12:16.150Z,98050.00
2023-06-26T19:17:59.155Z,98040.00
2023-06-26T19:23:21.001Z,98051.00
2023-06-26T19:28:42.205Z,98056.00
2023-06-26T19:34:08.595Z,98055.00
2023-06-26T19:39:31.638Z,98067.00
2023-06-26T19:44:53.418Z,98059.00
2023-06-26T19:50:14.902Z,98069.00
2023-06-26T19:55:36.428Z,98067.00
2023-06-26T20:00:58.047Z,98066.00
2023-06-26T20:06:33.492Z,98067.00
2023-06-26T20:12:14.281Z,98073.00
2023-06-26T20:17:56.317Z,98073.00
2023-06-26T20:23:35.318Z,98071.00
2023-06-26T20:29:03.294Z,98069.00
2023-06-26T20:34:30.176Z,98070.00
2023-06-26T20:39:51.740Z,98074.00
2023-06-26T20:45:13.876Z,98063.00
2023-06-26T20:50:35.518Z,98063.00
2023-06-26T20:56:17.623Z,98066.00
2023-06-26T21:02:21.844Z,98075.00
2023-06-26T21:07:53.220Z,98072.00
2023-06-26T21:13:27.607Z,98087.00
2023-06-26T21:19:03.176Z,98087.00
2023-06-26T21:24:25.675Z,98093.00
2023-06-26T21:29:47.171Z,98097.00
2023-06-26T21:35:09.451Z,98101.00
2023-06-26T21:40:32.749Z,98100.00
2023-06-26T21:46:09.750Z,98102.00
2023-06-26T21:52:00.898Z,98095.00
2023-06-26T21:57:37.592Z,98096.00
2023-06-26T22:03:31.720Z,98094.00
2023-06-26T22:09:38.884Z,98103.00
2023-06-26T22:15:08.061Z,98108.00
2023-06-26T22:20:31.843Z,98106.00
2023-06-26T22:26:12.683Z,98098.00
2023-06-26T22:32:05.903Z,98118.00
2023-06-26T22:37:56.504Z,98133.00
2023-06-26T22:43:36.089Z,98134.00
2023-06-26T22:49:06.032Z,98136.00
2023-06-26T22:54:31.235Z,98141.00
2023-06-26T22:59:52.887Z,98134.00
2023-06-26T23:05:38.842Z,98156.00
2023-06-26T23:11:34.354Z,98158.00
2023-06-26T23:17:18.002Z,98159.00
2023-06-26T23:22:55.137Z,98176.00
2023-06-26T23:28:29.886Z,98175.00
2023-06-26T23:34:03.220Z,98172.00
2023-06-26T23:39:25.415Z,98176.00
2023-06-26T23:44:50.883Z,98180.00
2023-06-26T23:50:13.472Z,98170.00
2023-06-26T23:55:34.709Z,98174.00
